sensor_id;sensor_type;location;lat;lon;timestamp;pressure;altitude;pressure_sealevel;temperature;humidity
24280;BME280;12395;42.808;23.408;2022-11-11T00:02:24;96050.19;;;5.59;100.00
24280;BME280;12395;42.808;23.408;2022-11-11T00:04:49;96051.00;;;5.59;100.00
24280;BME280;12395;42.808;23.408;2022-11-11T00:07:15;96050.34;;;5.57;100.00
24280;BME280;12395;42.808;23.408;2022-11-11T00:09:40;96055.59;;;5.57;100.00
24280;BME280;12395;42.808;23.408;2022-11-11T00:12:06;96040.78;;;5.56;100.00
24280;BME280;12395;42.808;23.408;2022-11-11T00:14:31;96056.25;;;5.59;100.00
24280;BME280;12395;42.808;23.408;2022-11-11T00:16:56;96050.34;;;5.57;100.00
24280;BME280;12395;42.808;23.408;2022-11-11T00:19:40;96058.75;;;5.61;100.00
24280;BME280;12395;42.808;23.408;2022-11-11T00:22:38;96054.59;;;5.58;100.00
24280;BME280;12395;42.808;23.408;2022-11-11T00:25:22;96059.66;;;5.52;100.00
24280;BME280;12395;42.808;23.408;2022-11-11T00:27:48;96061.06;;;5.46;100.00
24280;BME280;12395;42.808;23.408;2022-11-11T00:30:13;96064.94;;;5.42;100.00
24280;BME280;12395;42.808;23.408;2022-11-11T00:32:38;96074.03;;;5.47;100.00
24280;BME280;12395;42.808;23.408;2022-11-11T00:35:04;96057.34;;;5.39;100.00
24280;BME280;12395;42.808;23.408;2022-11-11T00:37:48;96069.09;;;5.44;100.00
24280;BME280;12395;42.808;23.408;2022-11-11T00:40:14;96062.47;;;5.40;100.00
24280;BME280;12395;42.808;23.408;2022-11-11T00:42:39;96062.59;;;5.39;100.00
24280;BME280;12395;42.808;23.408;2022-11-11T00:45:05;96060.97;;;5.38;100.00
24280;BME280;12395;42.808;23.408;2022-11-11T00:47:31;96057.34;;;5.39;100.00
24280;BME280;12395;42.808;23.408;2022-11-11T00:50:18;96061.38;;;5.43;100.00
24280;BME280;12395;42.808;23.408;2022-11-11T00:53:03;96055.63;;;5.30;100.00
24280;BME280;12395;42.808;23.408;2022-11-11T00:55:29;96057.69;;;5.26;100.00
24280;BME280;12395;42.808;23.408;2022-11-11T00:57:54;96048.47;;;5.22;100.00
24280;BME280;12395;42.808;23.408;2022-11-11T01:00:20;96056.19;;;5.24;100.00
24280;BME280;12395;42.808;23.408;2022-11-11T01:02:45;96042.38;;;5.22;100.00
24280;BME280;12395;42.808;23.408;2022-11-11T01:05:10;96043.28;;;5.13;100.00
24280;BME280;12395;42.808;23.408;2022-11-11T01:07:36;96035.59;;;5.02;100.00
24280;BME280;12395;42.808;23.408;2022-11-11T01:10:01;96044.97;;;5.04;100.00
24280;BME280;12395;42.808;23.408;2022-11-11T01:12:27;96047.44;;;5.06;100.00
24280;BME280;12395;42.808;23.408;2022-11-11T01:14:53;96047.03;;;5.10;100.00
24280;BME280;12395;42.808;23.408;2022-11-11T01:17:18;96048.53;;;5.13;100.00
24280;BME280;12395;42.808;23.408;2022-11-11T01:19:44;96045.59;;;5.16;100.00
24280;BME280;12395;42.808;23.408;2022-11-11T01:22:09;96040.94;;;5.10;100.00
24280;BME280;12395;42.808;23.408;2022-11-11T01:24:36;96035.53;;;5.11;100.00
24280;BME280;12395;42.808;23.408;2022-11-11T01:27:02;96040.16;;;5.00;100.00
24280;BME280;12395;42.808;23.408;2022-11-11T01:29:27;96045.16;;;4.93;100.00
24280;BME280;12395;42.808;23.408;2022-11-11T01:31:53;96033.97;;;4.91;100.00
24280;BME280;12395;42.808;23.408;2022-11-11T01:34:18;96026.53;;;4.87;100.00
24280;BME280;12395;42.808;23.408;2022-11-11T01:36:44;96034.59;;;4.76;100.00
24280;BME280;12395;42.808;23.408;2022-11-11T01:39:09;96045.88;;;4.86;100.00
24280;BME280;12395;42.808;23.408;2022-11-11T01:41:35;96041.19;;;4.80;100.00
24280;BME280;12395;42.808;23.408;2022-11-11T01:54:33;96059.06;;;4.66;100.00
24280;BME280;12395;42.808;23.408;2022-11-11T01:57:04;96045.16;;;4.56;100.00
24280;BME280;12395;42.808;23.408;2022-11-11T01:59:33;96040.34;;;4.52;100.00
24280;BME280;12395;42.808;23.408;2022-11-11T02:02:02;96060.88;;;4.66;100.00
24280;BME280;12395;42.808;23.408;2022-11-11T02:04:30;96064.91;;;4.60;100.00
24280;BME280;12395;42.808;23.408;2022-11-11T02:07:15;96061.16;;;4.53;100.00
24280;BME280;12395;42.808;23.408;2022-11-11T02:09:44;96058.31;;;4.47;100.00
24280;BME280;12395;42.808;23.408;2022-11-11T02:12:11;96069.03;;;4.53;100.00
24280;BME280;12395;42.808;23.408;2022-11-11T02:14:57;96066.16;;;4.56;100.00
24280;BME280;12395;42.808;23.408;2022-11-11T02:17:25;96068.94;;;4.55;100.00
24280;BME280;12395;42.808;23.408;2022-11-11T02:19:55;96065.19;;;4.48;100.00
24280;BME280;12395;42.808;23.408;2022-11-11T02:22:35;96069.09;;;4.44;100.00
24280;BME280;12395;42.808;23.408;2022-11-11T02:25:03;96063.69;;;4.45;100.00
24280;BME280;12395;42.808;23.408;2022-11-11T02:27:31;96063.41;;;4.48;100.00
24280;BME280;12395;42.808;23.408;2022-11-11T02:30:00;96072.38;;;4.55;100.00
24280;BME280;12395;42.808;23.408;2022-11-11T02:32:26;96069.75;;;4.55;100.00
24280;BME280;12395;42.808;23.408;2022-11-11T02:34:52;96070.88;;;4.53;100.00
24280;BME280;12395;42.808;23.408;2022-11-11T02:37:25;96062.16;;;4.52;100.00
24280;BME280;12395;42.808;23.408;2022-11-11T02:39:54;96065.47;;;4.54;100.00
24280;BME280;12395;42.808;23.408;2022-11-11T02:42:22;96049.78;;;4.26;100.00
24280;BME280;12395;42.808;23.408;2022-11-11T02:44:48;96064.81;;;4.33;100.00
24280;BME280;12395;42.808;23.408;2022-11-11T02:47:14;96044.00;;;4.32;100.00
24280;BME280;12395;42.808;23.408;2022-11-11T02:49:40;96045.09;;;4.29;100.00
24280;BME280;12395;42.808;23.408;2022-11-11T02:52:05;96034.34;;;4.23;100.00
24280;BME280;12395;42.808;23.408;2022-11-11T02:54:31;96051.88;;;4.22;100.00
24280;BME280;12395;42.808;23.408;2022-11-11T02:56:56;96066.75;;;4.31;100.00
24280;BME280;12395;42.808;23.408;2022-11-11T02:59:38;96082.63;;;4.39;100.00
24280;BME280;12395;42.808;23.408;2022-11-11T03:02:05;96072.97;;;4.30;100.00
24280;BME280;12395;42.808;23.408;2022-11-11T03:04:32;96077.53;;;4.28;100.00
24280;BME280;12395;42.808;23.408;2022-11-11T03:06:57;96075.47;;;4.32;100.00
24280;BME280;12395;42.808;23.408;2022-11-11T03:09:23;96072.28;;;4.28;100.00
24280;BME280;12395;42.808;23.408;2022-11-11T03:11:49;96068.44;;;4.23;100.00
24280;BME280;12395;42.808;23.408;2022-11-11T03:14:14;96062.47;;;4.30;100.00
24280;BME280;12395;42.808;23.408;2022-11-11T03:16:39;96039.72;;;4.12;100.00
24280;BME280;12395;42.808;23.408;2022-11-11T03:19:23;96053.00;;;4.10;100.00
24280;BME280;12395;42.808;23.408;2022-11-11T03:21:49;96060.56;;;4.23;100.00
24280;BME280;12395;42.808;23.408;2022-11-11T03:24:16;96065.41;;;4.27;100.00
24280;BME280;12395;42.808;23.408;2022-11-11T03:26:41;96054.34;;;4.33;100.00
24280;BME280;12395;42.808;23.408;2022-11-11T03:29:06;96069.78;;;4.36;100.00
24280;BME280;12395;42.808;23.408;2022-11-11T03:31:32;96074.34;;;4.34;100.00
24280;BME280;12395;42.808;23.408;2022-11-11T03:33:57;96074.53;;;4.23;100.00
24280;BME280;12395;42.808;23.408;2022-11-11T03:36:43;96070.22;;;4.22;100.00
24280;BME280;12395;42.808;23.408;2022-11-11T03:39:28;96073.69;;;4.23;100.00
24280;BME280;12395;42.808;23.408;2022-11-11T03:41:57;96076.28;;;4.32;100.00
24280;BME280;12395;42.808;23.408;2022-11-11T03:44:23;96053.66;;;4.22;100.00
24280;BME280;12395;42.808;23.408;2022-11-11T03:46:48;96083.03;;;4.35;100.00
24280;BME280;12395;42.808;23.408;2022-11-11T03:49:13;96059.16;;;4.28;100.00
24280;BME280;12395;42.808;23.408;2022-11-11T03:51:39;96053.06;;;4.37;100.00
24280;BME280;12395;42.808;23.408;2022-11-11T03:54:04;96066.84;;;4.58;100.00
24280;BME280;12395;42.808;23.408;2022-11-11T03:56:30;96071.09;;;4.69;100.00
24280;BME280;12395;42.808;23.408;2022-11-11T03:58:55;96050.91;;;4.69;100.00
24280;BME280;12395;42.808;23.408;2022-11-11T04:01:21;96054.31;;;4.80;100.00
24280;BME280;12395;42.808;23.408;2022-11-11T04:04:04;96049.34;;;4.86;100.00
24280;BME280;12395;42.808;23.408;2022-11-11T04:06:48;96053.88;;;4.94;100.00
24280;BME280;12395;42.808;23.408;2022-11-11T04:09:32;96056.28;;;5.05;100.00
24280;BME280;12395;42.808;23.408;2022-11-11T04:12:16;96052.94;;;5.12;100.00
24280;BME280;12395;42.808;23.408;2022-11-11T04:14:42;96066.94;;;5.30;100.00
24280;BME280;12395;42.808;23.408;2022-11-11T04:17:27;96059.03;;;5.40;100.00
24280;BME280;12395;42.808;23.408;2022-11-11T04:19:52;96066.66;;;5.33;100.00
24280;BME280;12395;42.808;23.408;2022-11-11T04:22:41;96074.50;;;5.43;100.00
24280;BME280;12395;42.808;23.408;2022-11-11T04:25:06;96068.34;;;5.52;100.00
24280;BME280;12395;42.808;23.408;2022-11-11T04:27:50;96067.69;;;5.68;100.00
24280;BME280;12395;42.808;23.408;2022-11-11T04:30:36;96037.66;;;5.70;100.00
24280;BME280;12395;42.808;23.408;2022-11-11T04:33:01;96061.44;;;5.96;100.00
24280;BME280;12395;42.808;23.408;2022-11-11T04:35:26;96068.31;;;5.97;100.00
24280;BME280;12395;42.808;23.408;2022-11-11T04:37:52;96069.84;;;5.99;100.00
24280;BME280;12395;42.808;23.408;2022-11-11T04:40:37;96071.72;;;6.07;100.00
24280;BME280;12395;42.808;23.408;2022-11-11T04:43:21;96067.41;;;6.23;100.00
24280;BME280;12395;42.808;23.408;2022-11-11T04:45:46;96083.94;;;6.34;100.00
24280;BME280;12395;42.808;23.408;2022-11-11T04:48:12;96074.63;;;6.21;100.00
24280;BME280;12395;42.808;23.408;2022-11-11T04:50:39;96081.63;;;6.31;100.00
24280;BME280;12395;42.808;23.408;2022-11-11T04:53:07;96087.91;;;6.38;100.00
24280;BME280;12395;42.808;23.408;2022-11-11T04:55:34;96088.13;;;6.44;100.00
24280;BME280;12395;42.808;23.408;2022-11-11T04:58:20;96072.94;;;6.56;100.00
24280;BME280;12395;42.808;23.408;2022-11-11T05:00:46;96084.69;;;6.69;100.00
24280;BME280;12395;42.808;23.408;2022-11-11T05:03:12;96070.03;;;6.67;100.00
24280;BME280;12395;42.808;23.408;2022-11-11T05:08:34;96078.50;;;6.78;100.00
24280;BME280;12395;42.808;23.408;2022-11-11T05:11:19;96085.84;;;6.92;100.00
24280;BME280;12395;42.808;23.408;2022-11-11T05:13:45;96088.97;;;6.96;100.00
24280;BME280;12395;42.808;23.408;2022-11-11T05:16:32;96081.44;;;7.01;100.00
24280;BME280;12395;42.808;23.408;2022-11-11T05:19:17;96089.75;;;7.14;100.00
24280;BME280;12395;42.808;23.408;2022-11-11T05:22:40;96097.81;;;7.21;100.00
24280;BME280;12395;42.808;23.408;2022-11-11T05:25:06;96103.78;;;7.23;100.00
24280;BME280;12395;42.808;23.408;2022-11-11T05:27:51;96115.66;;;7.27;100.00
24280;BME280;12395;42.808;23.408;2022-11-11T05:30:17;96117.84;;;7.31;100.00
24280;BME280;12395;42.808;23.408;2022-11-11T05:32:43;96117.84;;;7.31;100.00
24280;BME280;12395;42.808;23.408;2022-11-11T05:35:10;96122.78;;;7.34;100.00
24280;BME280;12395;42.808;23.408;2022-11-11T05:37:36;96119.78;;;7.29;100.00
24280;BME280;12395;42.808;23.408;2022-11-11T05:40:02;96128.75;;;7.44;100.00
24280;BME280;12395;42.808;23.408;2022-11-11T05:42:27;96120.38;;;7.49;100.00
24280;BME280;12395;42.808;23.408;2022-11-11T05:44:53;96122.06;;;7.58;100.00
24280;BME280;12395;42.808;23.408;2022-11-11T05:47:18;96129.31;;;7.64;100.00
24280;BME280;12395;42.808;23.408;2022-11-11T05:49:43;96134.13;;;7.68;100.00
24280;BME280;12395;42.808;23.408;2022-11-11T05:52:11;96136.31;;;7.81;100.00
24280;BME280;12395;42.808;23.408;2022-11-11T05:54:36;96142.13;;;7.85;100.00
24280;BME280;12395;42.808;23.408;2022-11-11T05:57:02;96140.75;;;7.80;100.00
24280;BME280;12395;42.808;23.408;2022-11-11T05:59:28;96152.50;;;7.94;100.00
24280;BME280;12395;42.808;23.408;2022-11-11T06:01:54;96140.13;;;7.87;100.00
24280;BME280;12395;42.808;23.408;2022-11-11T06:04:20;96140.63;;;7.90;100.00
24280;BME280;12395;42.808;23.408;2022-11-11T06:06:45;96147.25;;;7.94;100.00
24280;BME280;12395;42.808;23.408;2022-11-11T06:09:11;96151.38;;;8.05;100.00
24280;BME280;12395;42.808;23.408;2022-11-11T06:11:36;96152.88;;;8.07;100.00
24280;BME280;12395;42.808;23.408;2022-11-11T06:14:02;96162.47;;;8.16;100.00
24280;BME280;12395;42.808;23.408;2022-11-11T06:16:27;96157.03;;;8.10;100.00
24280;BME280;12395;42.808;23.408;2022-11-11T06:18:52;96170.94;;;8.28;100.00
24280;BME280;12395;42.808;23.408;2022-11-11T06:21:18;96171.63;;;8.38;100.00
24280;BME280;12395;42.808;23.408;2022-11-11T06:23:44;96160.25;;;8.45;100.00
24280;BME280;12395;42.808;23.408;2022-11-11T06:26:10;96158.59;;;8.52;100.00
24280;BME280;12395;42.808;23.408;2022-11-11T06:28:50;96165.72;;;8.68;100.00
24280;BME280;12395;42.808;23.408;2022-11-11T06:31:19;96176.25;;;8.52;100.00
24280;BME280;12395;42.808;23.408;2022-11-11T06:33:44;96167.69;;;8.50;100.00
24280;BME280;12395;42.808;23.408;2022-11-11T06:36:12;96173.78;;;8.59;100.00
24280;BME280;12395;42.808;23.408;2022-11-11T06:38:38;96173.31;;;8.71;100.00
24280;BME280;12395;42.808;23.408;2022-11-11T06:41:04;96173.31;;;8.71;100.00
24280;BME280;12395;42.808;23.408;2022-11-11T06:43:29;96173.28;;;8.79;100.00
24280;BME280;12395;42.808;23.408;2022-11-11T06:45:55;96177.78;;;8.87;100.00
24280;BME280;12395;42.808;23.408;2022-11-11T06:48:22;96203.69;;;8.83;100.00
24280;BME280;12395;42.808;23.408;2022-11-11T06:50:48;96201.53;;;8.63;100.00
24280;BME280;12395;42.808;23.408;2022-11-11T06:53:16;96206.34;;;8.59;100.00
24280;BME280;12395;42.808;23.408;2022-11-11T06:55:42;96197.41;;;8.52;100.00
24280;BME280;12395;42.808;23.408;2022-11-11T07:00:35;96202.38;;;8.71;100.00
24280;BME280;12395;42.808;23.408;2022-11-11T07:03:02;96192.97;;;8.77;100.00
24280;BME280;12395;42.808;23.408;2022-11-11T07:05:27;96192.97;;;8.93;100.00
24280;BME280;12395;42.808;23.408;2022-11-11T07:07:53;96194.75;;;9.00;100.00
24280;BME280;12395;42.808;23.408;2022-11-11T07:10:19;96192.63;;;9.12;100.00
24280;BME280;12395;42.808;23.408;2022-11-11T07:12:44;96206.63;;;9.28;100.00
24280;BME280;12395;42.808;23.408;2022-11-11T07:15:10;96202.69;;;9.41;100.00
24280;BME280;12395;42.808;23.408;2022-11-11T07:17:35;96208.91;;;9.48;100.00
24280;BME280;12395;42.808;23.408;2022-11-11T07:20:01;96171.25;;;9.38;100.00
24280;BME280;12395;42.808;23.408;2022-11-11T07:22:26;96211.22;;;9.59;100.00
24280;BME280;12395;42.808;23.408;2022-11-11T07:24:52;96207.44;;;9.53;100.00
24280;BME280;12395;42.808;23.408;2022-11-11T07:27:17;96207.06;;;9.72;100.00
24280;BME280;12395;42.808;23.408;2022-11-11T07:29:42;96211.94;;;9.91;100.00
24280;BME280;12395;42.808;23.408;2022-11-11T07:32:08;96225.28;;;10.14;100.00
24280;BME280;12395;42.808;23.408;2022-11-11T07:34:33;96221.59;;;10.23;100.00
24280;BME280;12395;42.808;23.408;2022-11-11T07:36:59;96227.88;;;10.30;100.00
24280;BME280;12395;42.808;23.408;2022-11-11T07:39:25;96230.81;;;10.35;100.00
24280;BME280;12395;42.808;23.408;2022-11-11T07:41:50;96222.47;;;10.07;100.00
24280;BME280;12395;42.808;23.408;2022-11-11T07:44:16;96233.59;;;9.95;100.00
24280;BME280;12395;42.808;23.408;2022-11-11T07:46:41;96236.72;;;10.06;100.00
24280;BME280;12395;42.808;23.408;2022-11-11T07:49:06;96226.44;;;10.03;100.00
24280;BME280;12395;42.808;23.408;2022-11-11T07:51:32;96228.06;;;10.21;100.00
24280;BME280;12395;42.808;23.408;2022-11-11T07:53:58;96226.81;;;10.39;100.00
24280;BME280;12395;42.808;23.408;2022-11-11T07:56:23;96241.94;;;10.61;100.00
24280;BME280;12395;42.808;23.408;2022-11-11T07:58:48;96232.69;;;10.80;100.00
24280;BME280;12395;42.808;23.408;2022-11-11T08:01:14;96237.97;;;10.88;100.00
24280;BME280;12395;42.808;23.408;2022-11-11T08:03:39;96217.63;;;10.80;100.00
24280;BME280;12395;42.808;23.408;2022-11-11T08:06:22;96233.47;;;10.88;100.00
24280;BME280;12395;42.808;23.408;2022-11-11T08:08:48;96240.75;;;10.86;100.00
24280;BME280;12395;42.808;23.408;2022-11-11T08:11:15;96252.09;;;10.80;100.00
24280;BME280;12395;42.808;23.408;2022-11-11T08:13:41;96231.53;;;10.82;100.00
24280;BME280;12395;42.808;23.408;2022-11-11T08:16:09;96241.59;;;10.64;100.00
24280;BME280;12395;42.808;23.408;2022-11-11T08:18:35;96238.81;;;10.80;100.00
24280;BME280;12395;42.808;23.408;2022-11-11T08:21:02;96238.19;;;10.78;100.00
24280;BME280;12395;42.808;23.408;2022-11-11T08:23:28;96242.13;;;10.82;100.00
24280;BME280;12395;42.808;23.408;2022-11-11T08:26:05;96244.66;;;10.76;100.00
24280;BME280;12395;42.808;23.408;2022-11-11T08:28:32;96243.41;;;10.86;100.00
24280;BME280;12395;42.808;23.408;2022-11-11T08:30:58;96245.41;;;10.84;100.00
24280;BME280;12395;42.808;23.408;2022-11-11T08:33:24;96238.31;;;10.85;100.00
24280;BME280;12395;42.808;23.408;2022-11-11T08:35:51;96254.44;;;10.98;100.00
24280;BME280;12395;42.808;23.408;2022-11-11T08:38:19;96249.00;;;11.14;100.00
24280;BME280;12395;42.808;23.408;2022-11-11T08:40:44;96251.94;;;11.42;100.00
24280;BME280;12395;42.808;23.408;2022-11-11T08:43:10;96258.03;;;11.65;100.00
24280;BME280;12395;42.808;23.408;2022-11-11T08:45:36;96238.75;;;11.71;100.00
24280;BME280;12395;42.808;23.408;2022-11-11T08:48:01;96247.91;;;11.98;100.00
24280;BME280;12395;42.808;23.408;2022-11-11T08:50:27;96254.69;;;12.15;100.00
24280;BME280;12395;42.808;23.408;2022-11-11T08:52:52;96271.38;;;12.23;100.00
24280;BME280;12395;42.808;23.408;2022-11-11T08:55:18;96259.75;;;12.24;100.00
24280;BME280;12395;42.808;23.408;2022-11-11T08:57:44;96272.47;;;12.29;100.00
24280;BME280;12395;42.808;23.408;2022-11-11T09:00:10;96266.16;;;12.15;100.00
24280;BME280;12395;42.808;23.408;2022-11-11T09:02:36;96264.53;;;12.14;100.00
24280;BME280;12395;42.808;23.408;2022-11-11T09:05:02;96267.91;;;12.23;100.00
24280;BME280;12395;42.808;23.408;2022-11-11T09:07:27;96250.75;;;12.11;99.91
24280;BME280;12395;42.808;23.408;2022-11-11T09:09:53;96257.19;;;12.16;99.20
24280;BME280;12395;42.808;23.408;2022-11-11T09:12:19;96264.31;;;12.30;97.51
24280;BME280;12395;42.808;23.408;2022-11-11T09:14:44;96265.06;;;12.24;95.90
24280;BME280;12395;42.808;23.408;2022-11-11T09:17:10;96278.78;;;12.43;95.96
24280;BME280;12395;42.808;23.408;2022-11-11T09:19:35;96279.16;;;12.39;95.30
24280;BME280;12395;42.808;23.408;2022-11-11T09:22:01;96271.66;;;12.28;95.43
24280;BME280;12395;42.808;23.408;2022-11-11T09:24:26;96254.78;;;12.21;94.89
24280;BME280;12395;42.808;23.408;2022-11-11T09:26:52;96270.63;;;12.44;95.36
24280;BME280;12395;42.808;23.408;2022-11-11T09:29:18;96274.25;;;12.58;94.27
24280;BME280;12395;42.808;23.408;2022-11-11T09:31:45;96277.47;;;12.68;93.33
24280;BME280;12395;42.808;23.408;2022-11-11T09:34:11;96277.00;;;12.64;92.33
24280;BME280;12395;42.808;23.408;2022-11-11T09:36:37;96269.22;;;12.63;92.65
24280;BME280;12395;42.808;23.408;2022-11-11T09:39:02;96270.66;;;12.80;91.31
24280;BME280;12395;42.808;23.408;2022-11-11T09:41:59;96263.94;;;12.84;91.18
24280;BME280;12395;42.808;23.408;2022-11-11T09:52:30;96257.47;;;12.72;90.88
24280;BME280;12395;42.808;23.408;2022-11-11T09:55:12;96258.50;;;12.56;91.57
24280;BME280;12395;42.808;23.408;2022-11-11T09:57:47;96242.22;;;12.80;90.87
24280;BME280;12395;42.808;23.408;2022-11-11T10:00:19;96256.22;;;12.89;90.60
24280;BME280;12395;42.808;23.408;2022-11-11T10:06:02;96238.19;;;12.49;90.82
24280;BME280;12395;42.808;23.408;2022-11-11T10:08:43;96243.50;;;12.49;90.54
24280;BME280;12395;42.808;23.408;2022-11-11T10:11:17;96242.59;;;12.42;90.97
24280;BME280;12395;42.808;23.408;2022-11-11T10:13:45;96253.31;;;12.33;91.49
24280;BME280;12395;42.808;23.408;2022-11-11T10:16:27;96250.84;;;12.32;91.07
24280;BME280;12395;42.808;23.408;2022-11-11T10:19:06;96248.28;;;12.24;92.10
24280;BME280;12395;42.808;23.408;2022-11-11T10:21:47;96241.16;;;12.24;92.39
24280;BME280;12395;42.808;23.408;2022-11-11T10:24:31;96251.41;;;12.13;92.75
24280;BME280;12395;42.808;23.408;2022-11-11T10:27:01;96236.84;;;12.09;92.42
24280;BME280;12395;42.808;23.408;2022-11-11T10:29:39;96233.34;;;12.08;92.64
24280;BME280;12395;42.808;23.408;2022-11-11T10:34:37;96244.63;;;12.10;92.57
24280;BME280;12395;42.808;23.408;2022-11-11T10:37:02;96233.75;;;12.05;92.25
24280;BME280;12395;42.808;23.408;2022-11-11T10:40:21;96239.03;;;12.20;92.61
24280;BME280;12395;42.808;23.408;2022-11-11T10:42:21;96215.94;;;12.20;91.53
24280;BME280;12395;42.808;23.408;2022-11-11T10:44:47;96215.38;;;12.39;90.63
24280;BME280;12395;42.808;23.408;2022-11-11T10:47:22;96226.75;;;12.69;89.69
24280;BME280;12395;42.808;23.408;2022-11-11T10:50:00;96222.19;;;12.63;88.43
24280;BME280;12395;42.808;23.408;2022-11-11T10:52:35;96233.25;;;12.67;87.84
24280;BME280;12395;42.808;23.408;2022-11-11T10:55:04;96232.63;;;12.65;88.57
24280;BME280;12395;42.808;23.408;2022-11-11T10:57:40;96218.66;;;12.77;88.43
24280;BME280;12395;42.808;23.408;2022-11-11T11:00:10;96229.84;;;12.73;86.97
24280;BME280;12395;42.808;23.408;2022-11-11T11:08:01;96225.00;;;12.62;87.11
24280;BME280;12395;42.808;23.408;2022-11-11T11:10:38;96214.69;;;12.52;87.50
24280;BME280;12395;42.808;23.408;2022-11-11T11:13:14;96226.94;;;12.68;87.76
24280;BME280;12395;42.808;23.408;2022-11-11T11:15:43;96219.03;;;12.74;86.52
24280;BME280;12395;42.808;23.408;2022-11-11T11:18:14;96215.00;;;12.78;86.80
24280;BME280;12395;42.808;23.408;2022-11-11T11:21:00;96219.69;;;12.76;87.26
24280;BME280;12395;42.808;23.408;2022-11-11T11:23:43;96204.84;;;12.88;86.92
24280;BME280;12395;42.808;23.408;2022-11-11T11:26:10;96204.56;;;12.98;85.79
24280;BME280;12395;42.808;23.408;2022-11-11T11:31:33;96205.69;;;12.89;84.71
24280;BME280;12395;42.808;23.408;2022-11-11T11:33:59;96199.09;;;12.85;84.01
24280;BME280;12395;42.808;23.408;2022-11-11T11:36:25;96195.41;;;12.86;84.87
24280;BME280;12395;42.808;23.408;2022-11-11T11:38:50;96187.75;;;12.97;84.64
24280;BME280;12395;42.808;23.408;2022-11-11T11:41:17;96195.81;;;13.04;83.29
24280;BME280;12395;42.808;23.408;2022-11-11T11:43:59;96189.41;;;13.20;82.74
24280;BME280;12395;42.808;23.408;2022-11-11T11:54:33;96185.53;;;13.01;82.98
24280;BME280;12395;42.808;23.408;2022-11-11T11:57:07;96185.16;;;13.04;82.43
24280;BME280;12395;42.808;23.408;2022-11-11T11:59:40;96186.91;;;13.39;81.63
24280;BME280;12395;42.808;23.408;2022-11-11T12:10:38;96178.75;;;13.41;80.15
24280;BME280;12395;42.808;23.408;2022-11-11T12:19:11;96175.81;;;13.08;81.42
24280;BME280;12395;42.808;23.408;2022-11-11T12:24:42;96170.41;;;13.23;80.60
24280;BME280;12395;42.808;23.408;2022-11-11T12:43:03;96161.09;;;13.12;79.05
24280;BME280;12395;42.808;23.408;2022-11-11T12:46:04;96163.00;;;12.97;78.93
24280;BME280;12395;42.808;23.408;2022-11-11T13:07:46;96165.25;;;12.79;80.86
24280;BME280;12395;42.808;23.408;2022-11-11T13:15:55;96171.94;;;12.89;80.56
24280;BME280;12395;42.808;23.408;2022-11-11T13:18:33;96173.84;;;12.74;79.18
24280;BME280;12395;42.808;23.408;2022-11-11T13:21:18;96170.06;;;12.69;78.96
24280;BME280;12395;42.808;23.408;2022-11-11T13:23:46;96164.13;;;12.67;78.99
24280;BME280;12395;42.808;23.408;2022-11-11T13:26:36;96172.94;;;12.67;78.34
24280;BME280;12395;42.808;23.408;2022-11-11T13:31:59;96164.81;;;12.54;79.00
24280;BME280;12395;42.808;23.408;2022-11-11T13:34:27;96170.69;;;12.50;78.45
24280;BME280;12395;42.808;23.408;2022-11-11T13:37:00;96170.13;;;12.54;78.06
24280;BME280;12395;42.808;23.408;2022-11-11T13:39:33;96170.63;;;12.43;79.05
24280;BME280;12395;42.808;23.408;2022-11-11T13:42:02;96171.59;;;12.57;77.35
24280;BME280;12395;42.808;23.408;2022-11-11T13:47:18;96174.13;;;12.44;77.64
24280;BME280;12395;42.808;23.408;2022-11-11T13:49:51;96182.56;;;12.32;78.01
24280;BME280;12395;42.808;23.408;2022-11-11T13:55:07;96178.00;;;12.26;78.34
24280;BME280;12395;42.808;23.408;2022-11-11T13:57:33;96168.88;;;12.14;78.71
24280;BME280;12395;42.808;23.408;2022-11-11T14:02:41;96178.66;;;12.14;78.89
24280;BME280;12395;42.808;23.408;2022-11-11T14:15:49;96191.47;;;12.10;79.62
24280;BME280;12395;42.808;23.408;2022-11-11T14:23:41;96190.31;;;11.84;80.71
24280;BME280;12395;42.808;23.408;2022-11-11T14:33:54;96185.84;;;11.70;81.84
24280;BME280;12395;42.808;23.408;2022-11-11T14:36:28;96192.78;;;11.71;82.33
24280;BME280;12395;42.808;23.408;2022-11-11T14:41:51;96195.63;;;11.69;82.76
24280;BME280;12395;42.808;23.408;2022-11-11T14:59:56;96204.84;;;11.58;83.67
24280;BME280;12395;42.808;23.408;2022-11-11T15:02:30;96195.50;;;11.48;84.27
24280;BME280;12395;42.808;23.408;2022-11-11T15:04:58;96189.16;;;11.49;84.17
24280;BME280;12395;42.808;23.408;2022-11-11T15:08:13;96201.06;;;11.53;84.30
24280;BME280;12395;42.808;23.408;2022-11-11T15:13:46;96202.19;;;11.44;84.34
24280;BME280;12395;42.808;23.408;2022-11-11T15:30:18;96196.19;;;11.27;87.44
24280;BME280;12395;42.808;23.408;2022-11-11T15:38:00;96196.38;;;11.26;92.84
24280;BME280;12395;42.808;23.408;2022-11-11T15:40:54;96179.25;;;11.14;93.95
24280;BME280;12395;42.808;23.408;2022-11-11T15:43:30;96195.72;;;11.24;96.16
24280;BME280;12395;42.808;23.408;2022-11-11T15:45:59;96181.75;;;10.93;95.83
24280;BME280;12395;42.808;23.408;2022-11-11T15:48:25;96199.28;;;10.94;96.92
24280;BME280;12395;42.808;23.408;2022-11-11T15:50:51;96184.97;;;10.80;97.14
24280;BME280;12395;42.808;23.408;2022-11-11T15:53:25;96183.16;;;10.80;98.41
24280;BME280;12395;42.808;23.408;2022-11-11T15:55:56;96190.13;;;10.81;99.45
24280;BME280;12395;42.808;23.408;2022-11-11T15:58:30;96178.25;;;10.69;100.00
24280;BME280;12395;42.808;23.408;2022-11-11T16:00:58;96209.41;;;10.67;100.00
24280;BME280;12395;42.808;23.408;2022-11-11T16:03:40;96203.00;;;10.62;100.00